createdAt,value
2023-04-07T00:02:13.453Z,37.15
2023-04-07T00:04:41.595Z,39.50
2023-04-07T00:07:09.587Z,37.80
2023-04-07T00:09:37.561Z,38.49
2023-04-07T00:12:05.290Z,37.80
2023-04-07T00:14:32.795Z,38.70
2023-04-07T00:17:00.264Z,37.69
2023-04-07T00:19:27.788Z,39.50
2023-04-07T00:21:55.220Z,38.96
2023-04-07T00:24:33.460Z,38.12
2023-04-07T00:27:01.986Z,39.02
2023-04-07T00:29:29.501Z,37.47
2023-04-07T00:31:57.072Z,39.53
2023-04-07T00:34:24.695Z,37.58
2023-04-07T00:36:55.163Z,37.50
2023-04-07T00:39:23.225Z,37.88
2023-04-07T00:41:51.610Z,37.51
2023-04-07T00:44:19.180Z,37.48
2023-04-07T00:46:48.789Z,37.11
2023-04-07T00:49:20.145Z,37.77
2023-04-07T00:51:47.774Z,35.27
2023-04-07T00:54:15.773Z,35.01
2023-04-07T00:56:43.854Z,35.14
2023-04-07T00:59:11.605Z,35.32
2023-04-07T01:01:46.826Z,35.76
2023-04-07T01:04:28.824Z,35.65
2023-04-07T01:07:04.542Z,35.88
2023-04-07T01:10:01.024Z,37.19
2023-04-07T01:12:38.012Z,38.13
2023-04-07T01:15:09.942Z,36.08
2023-04-07T01:17:46.642Z,35.68
2023-04-07T01:20:18.185Z,36.06
2023-04-07T01:22:57.806Z,35.91
2023-04-07T01:25:54.137Z,35.26
2023-04-07T01:28:40.065Z,35.23
2023-04-07T01:31:11.076Z,35.17
2023-04-07T01:33:40.615Z,35.38
2023-04-07T01:36:09.964Z,34.99
2023-04-07T01:38:39.399Z,34.60
2023-04-07T01:41:08.913Z,35.03
2023-04-07T01:43:38.169Z,35.80
2023-04-07T01:46:05.842Z,35.29
2023-04-07T01:48:36.448Z,35.06
2023-04-07T01:51:06.490Z,35.36
2023-04-07T01:53:38.204Z,35.67
2023-04-07T01:56:06.096Z,35.25
2023-04-07T01:58:35.692Z,35.85
2023-04-07T02:01:05.325Z,35.67
2023-04-07T02:07:49.008Z,36.31
2023-04-07T02:10:20.716Z,34.71
2023-04-07T02:12:49.507Z,34.55
2023-04-07T02:15:20.080Z,34.80
2023-04-07T02:17:52.326Z,34.14
2023-04-07T02:20:21.288Z,34.27
2023-04-07T02:22:50.479Z,32.95
2023-04-07T02:25:30.176Z,31.03
2023-04-07T02:27:59.324Z,29.72
2023-04-07T02:30:27.328Z,29.32
2023-04-07T02:32:58.913Z,28.44
2023-04-07T02:35:26.568Z,28.72
2023-04-07T02:37:54.320Z,27.44
2023-04-07T02:40:21.858Z,26.70
2023-04-07T02:42:49.333Z,27.76
2023-04-07T02:45:16.886Z,28.07
2023-04-07T02:47:44.374Z,26.94
2023-04-07T02:50:12.040Z,26.06
2023-04-07T02:52:39.619Z,24.72
2023-04-07T02:55:12.493Z,23.92
2023-04-07T02:57:40.121Z,23.02
2023-04-07T03:00:15.201Z,23.72
2023-04-07T03:03:03.112Z,23.38
2023-04-07T03:05:34.654Z,23.15
2023-04-07T03:08:03.325Z,24.02
2023-04-07T03:10:30.804Z,23.83
2023-04-07T03:12:58.493Z,23.00
2023-04-07T03:15:26.365Z,22.91
2023-04-07T03:17:53.892Z,22.28
2023-04-07T03:20:21.572Z,20.63
2023-04-07T03:22:49.091Z,20.62
2023-04-07T03:25:22.771Z,20.54
2023-04-07T03:27:51.886Z,19.92
2023-04-07T03:30:20.221Z,18.85
2023-04-07T03:32:47.805Z,18.68
2023-04-07T03:35:15.576Z,17.86
2023-04-07T03:37:44.969Z,17.48
2023-04-07T03:40:16.651Z,16.81
2023-04-07T03:42:47.201Z,16.79
2023-04-07T03:45:17.726Z,15.69
2023-04-07T03:47:50.277Z,15.35
2023-04-07T03:50:18.470Z,15.90
2023-04-07T03:53:00.917Z,14.84
2023-04-07T03:55:31.467Z,14.31
2023-04-07T03:58:05.532Z,14.22
2023-04-07T04:00:35.941Z,14.40
2023-04-07T04:03:11.985Z,14.10
2023-04-07T04:06:00.622Z,13.61
2023-04-07T04:08:31.435Z,12.66
2023-04-07T04:10:59.039Z,13.15
2023-04-07T04:13:32.553Z,12.96
2023-04-07T04:16:05.272Z,12.87
2023-04-07T04:18:33.607Z,12.33
2023-04-07T04:21:01.765Z,11.91
2023-04-07T04:23:29.856Z,12.04
2023-04-07T04:26:00.476Z,11.85
2023-04-07T04:28:29.087Z,12.04
2023-04-07T04:30:56.851Z,11.39
2023-04-07T04:33:24.858Z,11.08
2023-04-07T04:35:55.684Z,11.14
2023-04-07T04:38:24.780Z,10.89
2023-04-07T04:40:57.616Z,10.83
2023-04-07T04:43:29.142Z,10.25
2023-04-07T04:45:57.312Z,9.93
2023-04-07T04:48:27.599Z,9.90
2023-04-07T04:50:55.142Z,10.25
2023-04-07T04:53:22.976Z,10.04
2023-04-07T04:55:58.305Z,9.19
2023-04-07T04:58:36.394Z,9.00
2023-04-07T05:01:04.096Z,9.55
2023-04-07T05:03:38.260Z,9.47
2023-04-07T05:06:13.672Z,9.63
2023-04-07T05:08:43.512Z,10.23
2023-04-07T05:11:13.201Z,8.93
2023-04-07T05:13:42.902Z,9.22
2023-04-07T05:16:12.000Z,8.71
2023-04-07T05:18:39.669Z,9.04
2023-04-07T05:21:07.170Z,8.78
2023-04-07T05:23:36.747Z,8.12
2023-04-07T05:26:06.585Z,8.93
2023-04-07T05:28:34.210Z,8.58
2023-04-07T05:31:07.699Z,8.25
2023-04-07T05:33:36.519Z,8.30
2023-04-07T05:36:04.360Z,7.67
2023-04-07T05:38:33.235Z,7.56
2023-04-07T05:41:08.928Z,7.95
2023-04-07T05:43:37.431Z,7.63
2023-04-07T05:46:06.163Z,7.92
2023-04-07T05:48:38.010Z,7.46
2023-04-07T05:51:05.606Z,7.15
2023-04-07T05:53:33.093Z,6.99
2023-04-07T05:56:00.756Z,7.43
2023-04-07T05:58:54.294Z,6.89
2023-04-07T06:01:21.959Z,7.53
2023-04-07T06:03:51.372Z,7.06
2023-04-07T06:06:24.955Z,7.24
2023-04-07T06:08:52.781Z,7.44
2023-04-07T06:11:20.929Z,7.44
2023-04-07T06:13:48.728Z,7.25
2023-04-07T06:16:17.471Z,6.74
2023-04-07T06:18:46.479Z,7.21
2023-04-07T06:21:14.005Z,6.96
2023-04-07T06:23:41.455Z,7.25
2023-04-07T06:26:13.543Z,7.02
2023-04-07T06:28:41.382Z,6.87
2023-04-07T06:31:09.431Z,6.35
2023-04-07T06:33:38.044Z,6.33
2023-04-07T06:36:05.624Z,6.31
2023-04-07T06:38:33.293Z,6.23
2023-04-07T06:41:01.069Z,6.65
2023-04-07T06:43:28.864Z,6.06
2023-04-07T06:46:01.850Z,6.49
2023-04-07T06:48:29.362Z,6.25
2023-04-07T06:50:56.899Z,6.47
2023-04-07T06:53:24.317Z,5.93
2023-04-07T06:55:51.706Z,6.36
2023-04-07T06:58:19.214Z,6.17
2023-04-07T07:00:46.628Z,6.11
2023-04-07T07:03:14.280Z,5.94
2023-04-07T07:05:41.881Z,6.11
2023-04-07T07:08:09.276Z,5.86
2023-04-07T07:10:36.727Z,6.44
2023-04-07T07:13:04.209Z,6.08
2023-04-07T07:15:31.729Z,6.08
2023-04-07T07:17:59.325Z,5.90
2023-04-07T07:20:26.882Z,5.89
2023-04-07T07:22:54.480Z,6.53
2023-04-07T07:25:22.086Z,6.58
2023-04-07T07:27:53.592Z,6.82
2023-04-07T07:30:22.722Z,6.77
2023-04-07T07:32:51.558Z,7.60
2023-04-07T07:35:20.259Z,7.90
2023-04-07T07:37:47.993Z,7.93
2023-04-07T07:40:15.861Z,7.35
2023-04-07T07:42:43.561Z,7.24
2023-04-07T07:45:12.395Z,7.76
2023-04-07T07:47:40.890Z,8.20
2023-04-07T07:50:08.634Z,8.74
2023-04-07T07:52:36.144Z,9.39
2023-04-07T07:55:03.974Z,9.39
2023-04-07T07:57:32.228Z,9.61
2023-04-07T07:59:59.736Z,9.79
2023-04-07T08:02:31.681Z,10.00
2023-04-07T08:04:59.293Z,9.46
2023-04-07T08:07:27.721Z,9.69
2023-04-07T08:09:55.162Z,10.08
2023-04-07T08:12:22.881Z,10.26
2023-04-07T08:14:50.913Z,10.11
2023-04-07T08:17:18.520Z,10.82
2023-04-07T08:19:46.870Z,10.19
2023-04-07T08:22:14.399Z,10.36
2023-04-07T08:24:42.299Z,10.17
2023-04-07T08:27:09.780Z,9.87
2023-04-07T08:29:37.227Z,9.88
2023-04-07T08:32:04.808Z,10.08
2023-04-07T08:34:32.631Z,10.16
2023-04-07T08:37:00.156Z,10.59
2023-04-07T08:39:28.527Z,11.25
2023-04-07T08:41:57.406Z,11.34
2023-04-07T08:44:27.567Z,11.87
2023-04-07T08:46:57.132Z,12.14
2023-04-07T08:49:27.936Z,12.30
2023-04-07T08:51:57.267Z,13.05
2023-04-07T08:54:24.833Z,12.78
2023-04-07T08:56:53.087Z,12.79
2023-04-07T08:59:26.936Z,12.77
2023-04-07T09:01:55.740Z,12.60
2023-04-07T09:04:24.972Z,12.97
2023-04-07T09:06:52.474Z,12.35
2023-04-07T09:09:19.920Z,13.11
2023-04-07T09:11:49.106Z,12.89
2023-04-07T09:14:16.793Z,13.69
2023-04-07T09:16:44.533Z,13.84
2023-04-07T09:19:12.013Z,13.75
2023-04-07T09:21:50.650Z,13.94
2023-04-07T09:24:26.474Z,13.80
2023-04-07T09:27:20.441Z,13.24
2023-04-07T09:29:48.512Z,14.56
2023-04-07T09:32:41.848Z,13.95
2023-04-07T09:35:12.369Z,14.05
2023-04-07T09:37:39.975Z,14.49
2023-04-07T09:40:08.192Z,14.46
2023-04-07T09:42:38.211Z,14.81
2023-04-07T09:45:06.129Z,14.14
2023-04-07T09:47:33.645Z,13.69
2023-04-07T09:50:07.135Z,13.95
2023-04-07T09:52:54.200Z,14.29
2023-04-07T09:55:23.596Z,13.93
2023-04-07T09:57:51.996Z,14.01
2023-04-07T10:00:19.683Z,14.13
2023-04-07T10:02:48.345Z,14.80
2023-04-07T10:05:15.997Z,14.28
2023-04-07T10:07:43.978Z,15.21
2023-04-07T10:10:11.746Z,14.61
2023-04-07T10:12:41.729Z,15.59
2023-04-07T10:15:12.916Z,15.26
2023-04-07T10:17:41.864Z,16.45
2023-04-07T10:20:11.456Z,16.04
2023-04-07T10:22:42.192Z,14.67
2023-04-07T10:25:11.916Z,15.36
2023-04-07T10:27:54.211Z,14.69
2023-04-07T10:30:27.369Z,14.35
2023-04-07T10:32:55.726Z,14.41
2023-04-07T10:35:24.019Z,15.02
2023-04-07T10:38:16.940Z,15.16
2023-04-07T10:40:45.122Z,15.80
2023-04-07T10:43:12.772Z,15.20
2023-04-07T10:45:49.355Z,15.62
2023-04-07T10:48:18.639Z,15.52
2023-04-07T10:50:47.188Z,15.19
2023-04-07T10:53:17.854Z,14.87
2023-04-07T10:55:55.159Z,16.01
2023-04-07T10:58:33.039Z,14.82
2023-04-07T11:01:00.883Z,14.91
2023-04-07T11:03:30.241Z,14.45
2023-04-07T11:06:11.687Z,15.46
2023-04-07T11:08:46.226Z,14.98
2023-04-07T11:11:17.819Z,16.45
2023-04-07T11:13:47.768Z,16.19
2023-04-07T11:16:17.705Z,16.18
2023-04-07T11:18:48.413Z,16.11
2023-04-07T11:21:20.177Z,17.06
2023-04-07T11:23:48.611Z,17.04
2023-04-07T11:26:16.750Z,16.66
2023-04-07T11:28:50.184Z,15.63
2023-04-07T11:31:29.056Z,15.74
2023-04-07T11:33:59.503Z,15.51
2023-04-07T11:36:37.165Z,16.31
2023-04-07T11:39:04.796Z,15.30
2023-04-07T11:41:33.875Z,15.59
2023-04-07T11:44:12.063Z,15.50
2023-04-07T11:46:59.226Z,15.11
2023-04-07T11:49:29.105Z,14.88
2023-04-07T11:52:05.983Z,15.21
2023-04-07T11:54:50.839Z,15.25
2023-04-07T11:57:26.731Z,15.72
2023-04-07T12:00:08.310Z,15.61
2023-04-07T12:02:36.313Z,15.16
2023-04-07T12:05:07.510Z,15.80
2023-04-07T12:07:35.021Z,16.23
2023-04-07T12:10:27.630Z,15.53
2023-04-07T12:12:55.566Z,15.57
2023-04-07T12:15:24.487Z,15.28
2023-04-07T12:17:52.096Z,16.59
2023-04-07T12:20:19.659Z,15.12
2023-04-07T12:22:47.670Z,15.15
2023-04-07T12:25:15.266Z,15.18
2023-04-07T12:27:44.052Z,15.87
2023-04-07T12:30:16.452Z,15.93
2023-04-07T12:32:44.038Z,15.57
2023-04-07T12:35:11.518Z,15.96
2023-04-07T12:37:39.048Z,15.57
2023-04-07T12:40:07.429Z,16.22
2023-04-07T12:42:35.006Z,16.09
2023-04-07T12:45:03.390Z,15.92
2023-04-07T12:47:32.396Z,16.14
2023-04-07T12:50:00.757Z,16.36
2023-04-07T12:52:28.556Z,16.05
2023-04-07T12:54:57.404Z,17.19
2023-04-07T12:57:25.425Z,15.90
2023-04-07T12:59:53.852Z,15.98
2023-04-07T13:02:21.989Z,16.48
2023-04-07T13:04:49.601Z,16.35
2023-04-07T13:07:17.207Z,15.82
2023-04-07T13:09:44.714Z,16.02
2023-04-07T13:12:12.797Z,15.96
2023-04-07T13:14:52.926Z,15.85
2023-04-07T13:17:25.166Z,17.30
2023-04-07T13:19:52.947Z,16.58
2023-04-07T13:22:22.274Z,16.61
2023-04-07T13:24:51.927Z,15.70
2023-04-07T13:27:19.545Z,15.82
2023-04-07T13:29:47.157Z,15.28
2023-04-07T13:32:16.269Z,15.45
2023-04-07T13:34:44.464Z,15.65
2023-04-07T13:37:12.093Z,16.31
2023-04-07T13:39:39.649Z,15.89
2023-04-07T13:42:07.369Z,16.59
2023-04-07T13:44:37.313Z,16.09
2023-04-07T13:47:57.737Z,16.08
2023-04-07T13:50:41.306Z,16.31
2023-04-07T13:53:09.010Z,16.68
2023-04-07T13:55:37.065Z,16.37
2023-04-07T13:58:04.577Z,17.14
2023-04-07T14:00:32.356Z,15.95
2023-04-07T14:03:00.112Z,16.71
2023-04-07T14:05:30.948Z,16.50
2023-04-07T14:08:00.590Z,16.66
2023-04-07T14:10:28.261Z,17.53
2023-04-07T14:12:58.343Z,16.85
2023-04-07T14:15:26.625Z,17.65
2023-04-07T14:17:54.238Z,17.38
2023-04-07T14:20:21.829Z,17.51
2023-04-07T14:22:49.440Z,17.63
2023-04-07T14:25:17.400Z,16.71
2023-04-07T14:27:45.014Z,17.19
2023-04-07T14:30:14.706Z,16.80
2023-04-07T14:32:42.272Z,17.51
2023-04-07T14:35:09.994Z,17.75
2023-04-07T14:37:37.478Z,16.84
2023-04-07T14:40:05.858Z,17.19
2023-04-07T14:42:33.784Z,18.06
2023-04-07T14:45:02.104Z,18.16
2023-04-07T14:47:30.867Z,17.47
2023-04-07T14:49:58.396Z,17.11
2023-04-07T14:52:26.284Z,18.46
2023-04-07T14:54:53.899Z,17.86
2023-04-07T14:57:22.477Z,18.13
2023-04-07T14:59:50.078Z,17.88
2023-04-07T15:02:17.666Z,17.50
2023-04-07T15:04:45.359Z,17.03
2023-04-07T15:07:12.979Z,17.76
2023-04-07T15:09:40.742Z,17.79
2023-04-07T15:12:08.290Z,17.70
2023-04-07T15:14:35.978Z,17.52
2023-04-07T15:17:03.609Z,17.92
2023-04-07T15:19:31.175Z,17.58
2023-04-07T15:21:58.665Z,17.47
2023-04-07T15:24:26.237Z,17.45
2023-04-07T15:26:54.007Z,17.40
2023-04-07T15:29:21.638Z,17.39
2023-04-07T15:31:49.272Z,17.24
2023-04-07T15:34:16.764Z,17.87
2023-04-07T15:36:44.199Z,17.87
2023-04-07T15:39:11.780Z,18.38
2023-04-07T15:41:39.319Z,17.65
2023-04-07T15:44:06.986Z,18.31
2023-04-07T15:46:34.556Z,17.99
2023-04-07T15:49:02.168Z,17.67
2023-04-07T15:51:30.160Z,18.08
2023-04-07T15:53:57.712Z,18.08
2023-04-07T15:56:25.376Z,18.39
2023-04-07T15:58:52.941Z,17.71
2023-04-07T16:01:20.801Z,17.67
2023-04-07T16:03:48.789Z,18.24
2023-04-07T16:06:16.891Z,17.53
2023-04-07T16:08:45.087Z,18.85
2023-04-07T16:11:12.630Z,18.51
2023-04-07T16:13:40.201Z,18.31
2023-04-07T16:16:08.432Z,18.18
2023-04-07T16:18:36.038Z,18.28
2023-04-07T16:21:07.918Z,18.29
2023-04-07T16:23:35.625Z,18.04
2023-04-07T16:26:03.471Z,18.20
2023-04-07T16:28:33.243Z,18.54
2023-04-07T16:31:02.870Z,18.59
2023-04-07T16:36:29.295Z,18.56
2023-04-07T16:38:57.929Z,17.91
2023-04-07T16:41:25.456Z,18.33
2023-04-07T16:43:53.038Z,18.84
2023-04-07T16:46:20.697Z,19.23
2023-04-07T16:48:48.579Z,19.93
2023-04-07T16:51:19.761Z,18.93
2023-04-07T16:53:47.927Z,18.70
2023-04-07T16:56:20.229Z,19.09
2023-04-07T16:58:51.585Z,19.18
2023-04-07T17:01:19.660Z,18.90
2023-04-07T17:03:51.998Z,19.06
2023-04-07T17:06:19.780Z,19.28
2023-04-07T17:08:49.171Z,19.58
2023-04-07T17:11:16.863Z,19.66
2023-04-07T17:13:44.400Z,19.14
2023-04-07T17:16:15.089Z,18.67
2023-04-07T17:18:42.910Z,19.30
2023-04-07T17:21:10.446Z,18.63
2023-04-07T17:23:38.701Z,18.76
2023-04-07T17:26:06.344Z,18.87
2023-04-07T17:28:33.778Z,19.05
2023-04-07T17:31:04.343Z,18.73
2023-04-07T17:33:32.165Z,18.75
2023-04-07T17:36:03.368Z,19.40
2023-04-07T17:38:31.328Z,19.56
2023-04-07T17:41:00.041Z,19.68
2023-04-07T17:43:28.892Z,19.06
2023-04-07T17:45:56.965Z,19.32
2023-04-07T17:48:24.741Z,19.16
2023-04-07T17:50:52.274Z,18.81
2023-04-07T17:53:20.164Z,18.68
2023-04-07T17:55:48.121Z,18.72
2023-04-07T17:58:15.929Z,19.37
2023-04-07T18:00:43.394Z,19.46
2023-04-07T18:03:12.041Z,19.64
2023-04-07T18:05:46.973Z,19.44
2023-04-07T18:08:15.163Z,19.35
2023-04-07T18:10:42.929Z,19.82
2023-04-07T18:13:10.566Z,19.21
2023-04-07T18:15:38.190Z,19.81
2023-04-07T18:18:06.114Z,19.69
2023-04-07T18:20:33.942Z,19.84
2023-04-07T18:23:04.361Z,19.60
2023-04-07T18:25:31.969Z,19.91
2023-04-07T18:27:59.418Z,19.88
2023-04-07T18:30:27.491Z,19.96
2023-04-07T18:32:55.023Z,20.48
2023-04-07T18:35:22.645Z,20.34
2023-04-07T18:37:53.947Z,19.88
2023-04-07T18:40:21.472Z,20.34
2023-04-07T18:42:48.992Z,20.39
2023-04-07T18:45:16.717Z,20.67
2023-04-07T18:47:44.509Z,20.62
2023-04-07T18:50:12.308Z,20.39
2023-04-07T18:52:39.851Z,21.36
2023-04-07T18:55:09.083Z,20.87
2023-04-07T18:57:36.657Z,21.17
2023-04-07T19:00:04.455Z,21.60
2023-04-07T19:02:32.098Z,21.71
2023-04-07T19:04:59.748Z,21.64
2023-04-07T19:07:27.232Z,21.75
2023-04-07T19:09:54.853Z,21.83
2023-04-07T19:12:22.575Z,22.34
2023-04-07T19:14:50.077Z,21.97
2023-04-07T19:17:17.847Z,22.02
2023-04-07T19:19:45.293Z,22.13
2023-04-07T19:22:12.877Z,21.54
2023-04-07T19:24:41.030Z,22.57
2023-04-07T19:27:09.230Z,22.56
2023-04-07T19:29:37.197Z,22.83
2023-04-07T19:32:04.855Z,23.15
2023-04-07T19:34:32.825Z,22.83
2023-04-07T19:37:00.284Z,22.85
2023-04-07T19:39:27.781Z,23.43
2023-04-07T19:41:56.386Z,23.81
2023-04-07T19:44:23.968Z,23.74
2023-04-07T19:46:55.160Z,23.62
2023-04-07T19:49:22.907Z,24.20
2023-04-07T19:51:54.374Z,23.96
2023-04-07T19:54:22.509Z,23.83
2023-04-07T19:56:50.093Z,23.83
2023-04-07T19:59:17.503Z,24.58
2023-04-07T20:01:45.082Z,24.63
2023-04-07T20:04:12.777Z,24.56
2023-04-07T20:06:40.838Z,25.21
2023-04-07T20:09:08.516Z,24.68
2023-04-07T20:11:35.957Z,25.77
2023-04-07T20:14:03.451Z,25.62
2023-04-07T20:16:34.034Z,25.28
2023-04-07T20:19:01.732Z,25.07
2023-04-07T20:21:29.438Z,25.62
2023-04-07T20:23:56.960Z,26.23
2023-04-07T20:26:24.819Z,25.80
2023-04-07T20:28:52.502Z,25.31
2023-04-07T20:31:20.058Z,25.01
2023-04-07T20:33:47.607Z,25.58
2023-04-07T20:36:15.224Z,26.24
2023-04-07T20:38:44.194Z,26.19
2023-04-07T20:41:14.526Z,26.33
2023-04-07T20:43:42.066Z,26.20
2023-04-07T20:46:09.868Z,25.40
2023-04-07T20:48:38.464Z,25.50
2023-04-07T20:51:06.009Z,26.55
2023-04-07T20:53:33.579Z,26.64
2023-04-07T20:56:03.143Z,26.45
2023-04-07T20:58:30.867Z,26.87
2023-04-07T21:01:00.179Z,26.37
2023-04-07T21:03:28.444Z,26.52
2023-04-07T21:05:57.321Z,25.98
2023-04-07T21:08:24.795Z,26.61
2023-04-07T21:10:53.553Z,26.09
2023-04-07T21:13:22.726Z,27.08
2023-04-07T21:15:50.339Z,26.94
2023-04-07T21:18:19.178Z,26.93
2023-04-07T21:20:47.523Z,26.68
2023-04-07T21:23:15.179Z,27.25
2023-04-07T21:25:42.644Z,27.02
2023-04-07T21:28:10.241Z,27.17
2023-04-07T21:30:42.195Z,26.73
2023-04-07T21:33:10.124Z,26.58
2023-04-07T21:35:38.124Z,26.45
2023-04-07T21:38:05.990Z,27.02
2023-04-07T21:40:33.443Z,26.86
2023-04-07T21:43:01.034Z,26.72
2023-04-07T21:45:29.856Z,26.50
2023-04-07T21:47:57.605Z,26.64
2023-04-07T21:50:25.788Z,26.95
2023-04-07T21:52:53.891Z,26.50
2023-04-07T21:55:21.734Z,26.20
2023-04-07T21:57:50.403Z,26.16
2023-04-07T22:00:18.119Z,26.52
2023-04-07T22:02:45.865Z,26.93
2023-04-07T22:05:14.002Z,25.82
2023-04-07T22:07:41.475Z,26.24
2023-04-07T22:10:09.537Z,26.31
2023-04-07T22:12:37.125Z,26.20
2023-04-07T22:15:05.309Z,26.12
2023-04-07T22:17:32.908Z,26.19
2023-04-07T22:20:00.593Z,26.23
2023-04-07T22:22:28.115Z,26.55
2023-04-07T22:24:55.752Z,26.23
2023-04-07T22:27:23.410Z,26.01
2023-04-07T22:29:50.840Z,26.67
2023-04-07T22:32:18.388Z,26.24
2023-04-07T22:34:46.866Z,26.35
2023-04-07T22:37:14.394Z,26.63
2023-04-07T22:39:42.079Z,26.80
2023-04-07T22:42:09.524Z,26.78
2023-04-07T22:44:37.082Z,26.71
2023-04-07T22:47:04.807Z,27.18
2023-04-07T22:49:32.587Z,26.91
2023-04-07T22:52:00.240Z,26.48
2023-04-07T22:54:27.727Z,26.57
2023-04-07T22:56:55.192Z,26.38
2023-04-07T22:59:22.675Z,26.79
2023-04-07T23:01:50.251Z,26.58
2023-04-07T23:04:17.756Z,26.72
2023-04-07T23:06:45.294Z,26.81
2023-04-07T23:09:12.839Z,26.96
2023-04-07T23:11:40.354Z,27.51
2023-04-07T23:14:08.276Z,26.48
2023-04-07T23:16:36.228Z,27.17
2023-04-07T23:19:03.831Z,26.77
2023-04-07T23:21:32.457Z,26.34
2023-04-07T23:24:00.533Z,26.89
2023-04-07T23:26:28.231Z,26.70
2023-04-07T23:28:55.662Z,26.18
2023-04-07T23:31:23.341Z,26.53
2023-04-07T23:33:50.946Z,26.63
2023-04-07T23:36:18.483Z,26.14
2023-04-07T23:38:46.120Z,26.57
2023-04-07T23:41:13.630Z,26.29
2023-04-07T23:43:41.394Z,26.58
2023-04-07T23:46:08.899Z,26.37
2023-04-07T23:48:36.669Z,25.99
2023-04-07T23:51:04.279Z,26.29
2023-04-07T23:53:31.754Z,26.55
2023-04-07T23:55:59.373Z,26.16
2023-04-07T23:58:26.836Z,25.98
